sensor_id;sensor_type;location;lat;lon;timestamp;pressure;altitude;pressure_sealevel;temperature;humidity
43818;BME280;29868;47.360;18.984;2023-09-19T00:00:14;63837.69;;;22.29;100.00
43818;BME280;29868;47.360;18.984;2023-09-19T00:02:39;63833.75;;;22.25;100.00
43818;BME280;29868;47.360;18.984;2023-09-19T00:05:05;63838.81;;;22.30;100.00
43818;BME280;29868;47.360;18.984;2023-09-19T00:07:30;63831.31;;;22.28;100.00
43818;BME280;29868;47.360;18.984;2023-09-19T00:09:56;63833.56;;;22.30;100.00
43818;BME280;29868;47.360;18.984;2023-09-19T00:12:22;63840.31;;;22.29;100.00
43818;BME280;29868;47.360;18.984;2023-09-19T00:14:47;63834.31;;;22.26;100.00
43818;BME280;29868;47.360;18.984;2023-09-19T00:17:13;63839.94;;;22.31;100.00
43818;BME280;29868;47.360;18.984;2023-09-19T00:19:38;63835.06;;;22.29;100.00
43818;BME280;29868;47.360;18.984;2023-09-19T00:22:03;63830.56;;;22.25;100.00
43818;BME280;29868;47.360;18.984;2023-09-19T00:24:29;63833.38;;;22.27;100.00
43818;BME280;29868;47.360;18.984;2023-09-19T00:26:56;63817.56;;;22.13;100.00
43818;BME280;29868;47.360;18.984;2023-09-19T00:29:21;63823.78;;;22.19;100.00
43818;BME280;29868;47.360;18.984;2023-09-19T00:31:48;63818.13;;;22.14;100.00
43818;BME280;29868;47.360;18.984;2023-09-19T00:34:14;63822.09;;;22.17;100.00
43818;BME280;29868;47.360;18.984;2023-09-19T00:36:39;63820.75;;;22.14;100.00
43818;BME280;29868;47.360;18.984;2023-09-19T00:39:06;63818.91;;;22.17;100.00
43818;BME280;29868;47.360;18.984;2023-09-19T00:41:34;63822.09;;;22.17;100.00
43818;BME280;29868;47.360;18.984;2023-09-19T00:44:03;63826.22;;;22.23;100.00
43818;BME280;29868;47.360;18.984;2023-09-19T00:46:30;63830.91;;;22.23;100.00
43818;BME280;29868;47.360;18.984;2023-09-19T00:48:58;63816.06;;;22.14;100.00
43818;BME280;29868;47.360;18.984;2023-09-19T00:51:25;63819.03;;;22.12;100.00
43818;BME280;29868;47.360;18.984;2023-09-19T00:53:51;63812.06;;;22.03;100.00
43818;BME280;29868;47.360;18.984;2023-09-19T00:56:18;63810.56;;;22.04;100.00
43818;BME280;29868;47.360;18.984;2023-09-19T00:58:45;63810.56;;;22.04;100.00
43818;BME280;29868;47.360;18.984;2023-09-19T01:01:12;63802.88;;;22.00;100.00
43818;BME280;29868;47.360;18.984;2023-09-19T01:03:40;63811.88;;;22.08;100.00
43818;BME280;29868;47.360;18.984;2023-09-19T01:06:06;63807.94;;;22.04;100.00
43818;BME280;29868;47.360;18.984;2023-09-19T01:08:33;63810.56;;;22.04;100.00
43818;BME280;29868;47.360;18.984;2023-09-19T01:14:20;63804.16;;;21.96;100.00
43818;BME280;29868;47.360;18.984;2023-09-19T01:20:21;63808.31;;;22.02;100.00
43818;BME280;29868;47.360;18.984;2023-09-19T01:31:04;63806.03;;;22.00;100.00
43818;BME280;29868;47.360;18.984;2023-09-19T01:33:59;63820.75;;;22.14;100.00
43818;BME280;29868;47.360;18.984;2023-09-19T01:36:30;63808.88;;;22.03;100.00
43818;BME280;29868;47.360;18.984;2023-09-19T01:38:59;63806.03;;;22.00;100.00
43818;BME280;29868;47.360;18.984;2023-09-19T01:42:00;63796.44;;;21.92;100.00
43818;BME280;29868;47.360;18.984;2023-09-19T01:47:19;63777.09;;;21.79;100.00
43818;BME280;29868;47.360;18.984;2023-09-19T01:52:43;63761.31;;;21.65;100.00
43818;BME280;29868;47.360;18.984;2023-09-19T01:55:12;63761.66;;;21.62;100.00
43818;BME280;29868;47.360;18.984;2023-09-19T02:00:25;63762.25;;;21.63;100.00
43818;BME280;29868;47.360;18.984;2023-09-19T02:02:56;63758.28;;;21.59;100.00
43818;BME280;29868;47.360;18.984;2023-09-19T02:05:24;63743.59;;;21.46;100.00
43818;BME280;29868;47.360;18.984;2023-09-19T02:07:51;63743.97;;;21.44;100.00
43818;BME280;29868;47.360;18.984;2023-09-19T02:10:18;63735.69;;;21.39;100.00
43818;BME280;29868;47.360;18.984;2023-09-19T02:12:43;63722.72;;;21.27;100.00
43818;BME280;29868;47.360;18.984;2023-09-19T02:15:10;63733.81;;;21.35;100.00
43818;BME280;29868;47.360;18.984;2023-09-19T02:17:35;63716.88;;;21.20;100.00
43818;BME280;29868;47.360;18.984;2023-09-19T02:20:00;63703.31;;;21.07;100.00
43818;BME280;29868;47.360;18.984;2023-09-19T02:22:29;63692.59;;;20.98;100.00
43818;BME280;29868;47.360;18.984;2023-09-19T02:24:54;63667.84;;;20.82;100.00
43818;BME280;29868;47.360;18.984;2023-09-19T02:27:23;63665.53;;;20.73;100.00
43818;BME280;29868;47.360;18.984;2023-09-19T02:29:49;63675.50;;;20.80;100.00
43818;BME280;29868;47.360;18.984;2023-09-19T02:32:14;63659.88;;;20.68;100.00
43818;BME280;29868;47.360;18.984;2023-09-19T02:34:40;63668.34;;;20.76;100.00
43818;BME280;29868;47.360;18.984;2023-09-19T02:37:07;63678.72;;;20.87;100.00
43818;BME280;29868;47.360;18.984;2023-09-19T02:39:34;63659.34;;;20.68;100.00
43818;BME280;29868;47.360;18.984;2023-09-19T02:41:59;63652.19;;;20.63;100.00
43818;BME280;29868;47.360;18.984;2023-09-19T02:44:25;63653.69;;;20.62;100.00
43818;BME280;29868;47.360;18.984;2023-09-19T02:46:51;63670.63;;;20.78;100.00
43818;BME280;29868;47.360;18.984;2023-09-19T02:49:16;63687.53;;;20.93;100.00
43818;BME280;29868;47.360;18.984;2023-09-19T02:51:43;63682.28;;;20.93;100.00
43818;BME280;29868;47.360;18.984;2023-09-19T02:54:09;63686.81;;;20.97;100.00
43818;BME280;29868;47.360;18.984;2023-09-19T02:56:36;63692.81;;;21.00;100.00
43818;BME280;29868;47.360;18.984;2023-09-19T02:59:02;63685.84;;;20.92;100.00
43818;BME280;29868;47.360;18.984;2023-09-19T03:01:28;63679.06;;;20.85;100.00
43818;BME280;29868;47.360;18.984;2023-09-19T03:03:54;63671.38;;;20.81;100.00
43818;BME280;29868;47.360;18.984;2023-09-19T03:06:20;63675.69;;;20.82;100.00
43818;BME280;29868;47.360;18.984;2023-09-19T03:08:47;63671.38;;;20.81;100.00
43818;BME280;29868;47.360;18.984;2023-09-19T03:11:14;63686.59;;;20.95;100.00
43818;BME280;29868;47.360;18.984;2023-09-19T03:13:40;63698.59;;;21.01;100.00
43818;BME280;29868;47.360;18.984;2023-09-19T03:16:07;63694.88;;;21.00;100.00
43818;BME280;29868;47.360;18.984;2023-09-19T03:18:35;63697.53;;;21.07;100.00
43818;BME280;29868;47.360;18.984;2023-09-19T03:21:00;63709.53;;;21.13;100.00
43818;BME280;29868;47.360;18.984;2023-09-19T03:23:27;63713.47;;;21.17;100.00
43818;BME280;29868;47.360;18.984;2023-09-19T03:25:53;63703.88;;;21.08;100.00
43818;BME280;29868;47.360;18.984;2023-09-19T03:28:18;63698.66;;;21.08;100.00
43818;BME280;29868;47.360;18.984;2023-09-19T03:30:45;63692.03;;;20.97;100.00
43818;BME280;29868;47.360;18.984;2023-09-19T03:33:11;63690.53;;;20.98;100.00
43818;BME280;29868;47.360;18.984;2023-09-19T03:35:38;63683.41;;;20.94;100.00
43818;BME280;29868;47.360;18.984;2023-09-19T03:38:05;63681.19;;;20.92;100.00
43818;BME280;29868;47.360;18.984;2023-09-19T03:40:31;63679.28;;;20.88;100.00
43818;BME280;29868;47.360;18.984;2023-09-19T03:42:56;63668.78;;;20.81;100.00
43818;BME280;29868;47.360;18.984;2023-09-19T03:45:25;63675.91;;;20.85;100.00
43818;BME280;29868;47.360;18.984;2023-09-19T03:47:50;63677.94;;;20.84;100.00
43818;BME280;29868;47.360;18.984;2023-09-19T03:50:16;63670.06;;;20.77;100.00
43818;BME280;29868;47.360;18.984;2023-09-19T03:52:43;63668.56;;;20.78;100.00
43818;BME280;29868;47.360;18.984;2023-09-19T03:55:09;63667.22;;;20.75;100.00
43818;BME280;29868;47.360;18.984;2023-09-19T03:57:35;63680.75;;;20.87;100.00
43818;BME280;29868;47.360;18.984;2023-09-19T04:00:02;63708.97;;;21.12;100.00
43818;BME280;29868;47.360;18.984;2023-09-19T04:02:28;63693.75;;;20.99;100.00
43818;BME280;29868;47.360;18.984;2023-09-19T04:04:58;63679.28;;;20.88;100.00
43818;BME280;29868;47.360;18.984;2023-09-19T04:07:23;63662.75;;;20.78;100.00
43818;BME280;29868;47.360;18.984;2023-09-19T04:09:51;63662.31;;;20.65;100.00
43818;BME280;29868;47.360;18.984;2023-09-19T04:12:18;63648.63;;;20.58;100.00
43818;BME280;29868;47.360;18.984;2023-09-19T04:14:44;63648.97;;;20.56;100.00
43818;BME280;29868;47.360;18.984;2023-09-19T04:17:09;63646.00;;;20.58;100.00
43818;BME280;29868;47.360;18.984;2023-09-19T04:19:36;63644.53;;;20.59;100.00
43818;BME280;29868;47.360;18.984;2023-09-19T04:22:01;63655.94;;;20.64;100.00
43818;BME280;29868;47.360;18.984;2023-09-19T04:24:27;63658.78;;;20.67;100.00
43818;BME280;29868;47.360;18.984;2023-09-19T04:26:52;63666.31;;;20.76;100.00
43818;BME280;29868;47.360;18.984;2023-09-19T04:29:18;63678.13;;;20.87;100.00
43818;BME280;29868;47.360;18.984;2023-09-19T04:31:44;63692.03;;;20.97;100.00
43818;BME280;29868;47.360;18.984;2023-09-19T04:34:11;63689.06;;;20.99;100.00
43818;BME280;29868;47.360;18.984;2023-09-19T04:36:41;63703.69;;;21.05;100.00
43818;BME280;29868;47.360;18.984;2023-09-19T04:39:07;63680.97;;;20.89;100.00
43818;BME280;29868;47.360;18.984;2023-09-19T04:41:33;63691.47;;;20.97;100.00
43818;BME280;29868;47.360;18.984;2023-09-19T04:43:59;63679.28;;;20.88;100.00
43818;BME280;29868;47.360;18.984;2023-09-19T04:46:25;63688.09;;;20.94;100.00
43818;BME280;29868;47.360;18.984;2023-09-19T04:48:50;63697.53;;;21.07;100.00
43818;BME280;29868;47.360;18.984;2023-09-19T04:51:16;63696.00;;;21.01;100.00
43818;BME280;29868;47.360;18.984;2023-09-19T04:53:41;63687.53;;;20.93;100.00
43818;BME280;29868;47.360;18.984;2023-09-19T04:56:07;63696.19;;;21.03;100.00
43818;BME280;29868;47.360;18.984;2023-09-19T04:58:33;63665.16;;;20.75;100.00
43818;BME280;29868;47.360;18.984;2023-09-19T05:00:59;63661.22;;;20.72;100.00
43818;BME280;29868;47.360;18.984;2023-09-19T05:03:25;63646.56;;;20.58;100.00
43818;BME280;29868;47.360;18.984;2023-09-19T05:05:50;63664.56;;;20.68;100.00
43818;BME280;29868;47.360;18.984;2023-09-19T05:08:15;63667.22;;;20.75;100.00
43818;BME280;29868;47.360;18.984;2023-09-19T05:10:41;63627.19;;;20.38;100.00
43818;BME280;29868;47.360;18.984;2023-09-19T05:13:06;63626.03;;;20.37;100.00
43818;BME280;29868;47.360;18.984;2023-09-19T05:15:35;63627.19;;;20.38;100.00
43818;BME280;29868;47.360;18.984;2023-09-19T05:18:02;63616.88;;;20.34;100.00
43818;BME280;29868;47.360;18.984;2023-09-19T05:20:28;63603.72;;;20.20;100.00
43818;BME280;29868;47.360;18.984;2023-09-19T05:23:06;63580.81;;;20.01;100.00
43818;BME280;29868;47.360;18.984;2023-09-19T05:25:37;63584.91;;;20.00;100.00
43818;BME280;29868;47.360;18.984;2023-09-19T05:28:03;63592.66;;;20.12;100.00
43818;BME280;29868;47.360;18.984;2023-09-19T05:30:31;63597.16;;;20.16;100.00
43818;BME280;29868;47.360;18.984;2023-09-19T05:32:57;63601.44;;;20.17;100.00
43818;BME280;29868;47.360;18.984;2023-09-19T05:35:22;63608.22;;;20.24;100.00
43818;BME280;29868;47.360;18.984;2023-09-19T05:37:51;63601.09;;;20.20;100.00
43818;BME280;29868;47.360;18.984;2023-09-19T05:40:19;63614.97;;;20.30;100.00
43818;BME280;29868;47.360;18.984;2023-09-19T05:42:45;63616.88;;;20.34;100.00
43818;BME280;29868;47.360;18.984;2023-09-19T05:45:12;63623.25;;;20.35;100.00
43818;BME280;29868;47.360;18.984;2023-09-19T05:47:39;63650.31;;;20.59;100.00
43818;BME280;29868;47.360;18.984;2023-09-19T05:50:06;63654.47;;;20.65;100.00
43818;BME280;29868;47.360;18.984;2023-09-19T05:52:33;63647.47;;;20.57;100.00
43818;BME280;29868;47.360;18.984;2023-09-19T05:54:58;63629.09;;;20.42;100.00
43818;BME280;29868;47.360;18.984;2023-09-19T05:57:23;63610.47;;;20.26;100.00
43818;BME280;29868;47.360;18.984;2023-09-19T05:59:50;63596.94;;;20.13;100.00
43818;BME280;29868;47.360;18.984;2023-09-19T06:02:15;63582.09;;;19.98;100.00
43818;BME280;29868;47.360;18.984;2023-09-19T06:04:41;63582.25;;;19.93;100.00
43818;BME280;29868;47.360;18.984;2023-09-19T06:07:06;63577.59;;;19.93;100.00
43818;BME280;29868;47.360;18.984;2023-09-19T06:09:32;63573.84;;;19.92;100.00
43818;BME280;29868;47.360;18.984;2023-09-19T06:11:58;63582.09;;;19.98;100.00
43818;BME280;29868;47.360;18.984;2023-09-19T06:14:25;63565.38;;;19.85;100.00
43818;BME280;29868;47.360;18.984;2023-09-19T06:16:50;63558.41;;;19.76;100.00
43818;BME280;29868;47.360;18.984;2023-09-19T06:19:19;63548.69;;;19.72;100.00
43818;BME280;29868;47.360;18.984;2023-09-19T06:21:48;63559.53;;;19.77;100.00
43818;BME280;29868;47.360;18.984;2023-09-19T06:24:14;63549.25;;;19.73;100.00
43818;BME280;29868;47.360;18.984;2023-09-19T06:26:40;63546.81;;;19.68;100.00
43818;BME280;29868;47.360;18.984;2023-09-19T06:29:05;63553.00;;;19.74;100.00
43818;BME280;29868;47.360;18.984;2023-09-19T06:31:33;63542.06;;;19.61;100.00
43818;BME280;29868;47.360;18.984;2023-09-19T06:33:58;63541.19;;;19.63;100.00
43818;BME280;29868;47.360;18.984;2023-09-19T06:36:24;63540.03;;;19.62;100.00
43818;BME280;29868;47.360;18.984;2023-09-19T06:38:49;63530.81;;;19.51;100.00
43818;BME280;29868;47.360;18.984;2023-09-19T06:41:17;63527.84;;;19.53;100.00
43818;BME280;29868;47.360;18.984;2023-09-19T06:43:42;63532.34;;;19.57;100.00
43818;BME280;29868;47.360;18.984;2023-09-19T06:46:09;63532.72;;;19.55;100.00
43818;BME280;29868;47.360;18.984;2023-09-19T06:48:35;63517.66;;;19.37;100.00
43818;BME280;29868;47.360;18.984;2023-09-19T06:51:01;63497.00;;;19.20;100.00
43818;BME280;29868;47.360;18.984;2023-09-19T06:53:31;63497.00;;;19.20;100.00
43818;BME280;29868;47.360;18.984;2023-09-19T06:55:57;63480.53;;;19.10;100.00
43818;BME280;29868;47.360;18.984;2023-09-19T06:58:23;63469.28;;;19.00;100.00
43818;BME280;29868;47.360;18.984;2023-09-19T07:00:48;63488.22;;;19.15;100.00
43818;BME280;29868;47.360;18.984;2023-09-19T07:03:15;63488.56;;;19.13;100.00
43818;BME280;29868;47.360;18.984;2023-09-19T07:05:43;63474.16;;;19.02;100.00
43818;BME280;29868;47.360;18.984;2023-09-19T07:08:10;63474.50;;;19.00;100.00
43818;BME280;29868;47.360;18.984;2023-09-19T07:10:42;63452.75;;;18.83;100.00
43818;BME280;29868;47.360;18.984;2023-09-19T07:13:14;63444.66;;;18.73;100.00
43818;BME280;29868;47.360;18.984;2023-09-19T07:15:43;63441.69;;;18.75;100.00
43818;BME280;29868;47.360;18.984;2023-09-19T07:18:13;63438.09;;;18.69;100.00
43818;BME280;29868;47.360;18.984;2023-09-19T07:20:40;63435.06;;;18.64;100.00
43818;BME280;29868;47.360;18.984;2023-09-19T07:23:13;63469.28;;;19.00;100.00
43818;BME280;29868;47.360;18.984;2023-09-19T07:25:40;63476.19;;;19.02;100.00
43818;BME280;29868;47.360;18.984;2023-09-19T07:28:05;63494.75;;;19.18;100.00
43818;BME280;29868;47.360;18.984;2023-09-19T07:30:31;63484.63;;;19.09;100.00
43818;BME280;29868;47.360;18.984;2023-09-19T07:32:56;63497.00;;;19.20;100.00
43818;BME280;29868;47.360;18.984;2023-09-19T07:35:22;63509.81;;;19.37;100.00
43818;BME280;29868;47.360;18.984;2023-09-19T07:37:48;63526.16;;;19.52;100.00
43818;BME280;29868;47.360;18.984;2023-09-19T07:40:15;63530.09;;;19.55;100.00
43818;BME280;29868;47.360;18.984;2023-09-19T07:42:40;63544.75;;;19.68;100.00
43818;BME280;29868;47.360;18.984;2023-09-19T07:45:09;63557.50;;;19.78;100.00
43818;BME280;29868;47.360;18.984;2023-09-19T07:47:34;63569.13;;;19.86;100.00
43818;BME280;29868;47.360;18.984;2023-09-19T07:50:01;63557.50;;;19.78;100.00
43818;BME280;29868;47.360;18.984;2023-09-19T07:52:28;63570.25;;;19.87;100.00
43818;BME280;29868;47.360;18.984;2023-09-19T07:54:54;63562.94;;;19.80;100.00
43818;BME280;29868;47.360;18.984;2023-09-19T07:57:20;63567.66;;;19.87;100.00
43818;BME280;29868;47.360;18.984;2023-09-19T07:59:45;63587.16;;;20.02;100.00
43818;BME280;29868;47.360;18.984;2023-09-19T08:02:11;63574.03;;;19.95;100.00
43818;BME280;29868;47.360;18.984;2023-09-19T08:04:45;63576.44;;;19.92;100.00
43818;BME280;29868;47.360;18.984;2023-09-19T08:07:15;63552.44;;;19.73;100.00
43818;BME280;29868;47.360;18.984;2023-09-19T08:09:40;63595.97;;;20.08;100.00
43818;BME280;29868;47.360;18.984;2023-09-19T08:12:07;63595.81;;;20.12;100.00
43818;BME280;29868;47.360;18.984;2023-09-19T08:14:36;63608.22;;;20.24;100.00
43818;BME280;29868;47.360;18.984;2023-09-19T08:17:03;63612.72;;;20.28;100.00
43818;BME280;29868;47.360;18.984;2023-09-19T08:19:30;63579.81;;;19.96;100.00
43818;BME280;29868;47.360;18.984;2023-09-19T08:21:57;63599.78;;;20.16;100.00
43818;BME280;29868;47.360;18.984;2023-09-19T08:24:29;63610.13;;;20.28;100.00
43818;BME280;29868;47.360;18.984;2023-09-19T08:26:56;63599.78;;;20.16;100.00
43818;BME280;29868;47.360;18.984;2023-09-19T08:29:23;63617.25;;;20.32;100.00
43818;BME280;29868;47.360;18.984;2023-09-19T08:31:56;63611.41;;;20.24;100.00
43818;BME280;29868;47.360;18.984;2023-09-19T08:34:23;63589.81;;;20.09;100.00
43818;BME280;29868;47.360;18.984;2023-09-19T08:36:53;63591.09;;;20.06;100.00
43818;BME280;29868;47.360;18.984;2023-09-19T08:39:23;63579.63;;;19.93;100.00
43818;BME280;29868;47.360;18.984;2023-09-19T08:41:48;63564.63;;;19.82;100.00
43818;BME280;29868;47.360;18.984;2023-09-19T08:44:15;63553.56;;;19.74;100.00
43818;BME280;29868;47.360;18.984;2023-09-19T08:46:41;63541.94;;;19.66;100.00
43818;BME280;29868;47.360;18.984;2023-09-19T08:49:24;63541.72;;;19.63;100.00
43818;BME280;29868;47.360;18.984;2023-09-19T08:52:05;63557.72;;;19.80;100.00
43818;BME280;29868;47.360;18.984;2023-09-19T08:54:37;63566.94;;;19.91;100.00
43818;BME280;29868;47.360;18.984;2023-09-19T08:57:07;63585.47;;;20.01;100.00
43818;BME280;29868;47.360;18.984;2023-09-19T08:59:39;63597.88;;;20.12;100.00
43818;BME280;29868;47.360;18.984;2023-09-19T09:02:12;63597.34;;;20.18;100.00
43818;BME280;29868;47.360;18.984;2023-09-19T09:04:41;63608.22;;;20.24;100.00
43818;BME280;29868;47.360;18.984;2023-09-19T09:07:11;63636.19;;;20.47;100.00
43818;BME280;29868;47.360;18.984;2023-09-19T09:09:38;63667.78;;;20.75;100.00
43818;BME280;29868;47.360;18.984;2023-09-19T09:12:14;63644.88;;;20.57;100.00
43818;BME280;29868;47.360;18.984;2023-09-19T09:14:44;63684.50;;;20.88;100.00
43818;BME280;29868;47.360;18.984;2023-09-19T09:17:10;63673.22;;;20.78;100.00
43818;BME280;29868;47.360;18.984;2023-09-19T09:19:36;63662.38;;;20.73;100.00
43818;BME280;29868;47.360;18.984;2023-09-19T09:22:08;63691.88;;;21.02;100.00
43818;BME280;29868;47.360;18.984;2023-09-19T09:24:34;63710.09;;;21.13;100.00
43818;BME280;29868;47.360;18.984;2023-09-19T09:27:04;63680.75;;;20.87;100.00
43818;BME280;29868;47.360;18.984;2023-09-19T09:30:02;63719.31;;;21.24;100.00
43818;BME280;29868;47.360;18.984;2023-09-19T09:32:29;63767.09;;;21.65;100.00
43818;BME280;29868;47.360;18.984;2023-09-19T09:35:01;63798.13;;;21.93;100.00
43818;BME280;29868;47.360;18.984;2023-09-19T09:37:29;63805.69;;;22.02;100.00
43818;BME280;29868;47.360;18.984;2023-09-19T09:40:00;63834.31;;;22.26;100.00
43818;BME280;29868;47.360;18.984;2023-09-19T09:42:44;63815.44;;;22.06;100.00
43818;BME280;29868;47.360;18.984;2023-09-19T09:47:44;63850.13;;;22.40;100.00
43818;BME280;29868;47.360;18.984;2023-09-19T09:50:28;63859.16;;;22.48;100.00
43818;BME280;29868;47.360;18.984;2023-09-19T09:53:29;63867.28;;;22.58;100.00
43818;BME280;29868;47.360;18.984;2023-09-19T09:56:07;63847.84;;;22.38;100.00
43818;BME280;29868;47.360;18.984;2023-09-19T09:58:35;63869.31;;;22.57;100.00
43818;BME280;29868;47.360;18.984;2023-09-19T10:01:03;63870.63;;;22.61;100.00
43818;BME280;29868;47.360;18.984;2023-09-19T10:03:36;63853.13;;;22.45;100.00
43818;BME280;29868;47.360;18.984;2023-09-19T10:06:07;63839.19;;;22.28;100.00
43818;BME280;29868;47.360;18.984;2023-09-19T10:09:09;63843.53;;;22.37;100.00
43818;BME280;29868;47.360;18.984;2023-09-19T10:11:35;63863.88;;;22.55;100.00
43818;BME280;29868;47.360;18.984;2023-09-19T10:14:06;63881.00;;;22.73;100.00
43818;BME280;29868;47.360;18.984;2023-09-19T10:16:36;63900.97;;;22.86;100.00
43818;BME280;29868;47.360;18.984;2023-09-19T10:19:07;63899.47;;;22.87;100.00
43818;BME280;29868;47.360;18.984;2023-09-19T10:21:36;63908.88;;;22.93;100.00
43818;BME280;29868;47.360;18.984;2023-09-19T10:24:03;63954.09;;;23.34;100.00
43818;BME280;29868;47.360;18.984;2023-09-19T10:26:34;63972.19;;;23.50;100.00
43818;BME280;29868;47.360;18.984;2023-09-19T10:29:01;63944.47;;;23.25;100.00
43818;BME280;29868;47.360;18.984;2023-09-19T10:31:29;63952.41;;;23.33;100.00
43818;BME280;29868;47.360;18.984;2023-09-19T10:34:03;63955.44;;;23.38;100.00
43818;BME280;29868;47.360;18.984;2023-09-19T10:36:32;63971.84;;;23.52;100.00
43818;BME280;29868;47.360;18.984;2023-09-19T10:39:01;63977.28;;;23.55;100.00
43818;BME280;29868;47.360;18.984;2023-09-19T10:41:32;63993.47;;;23.67;100.00
43818;BME280;29868;47.360;18.984;2023-09-19T10:44:03;63982.72;;;23.58;100.00
43818;BME280;29868;47.360;18.984;2023-09-19T10:46:32;63954.09;;;23.34;100.00
43818;BME280;29868;47.360;18.984;2023-09-19T10:48:59;63971.63;;;23.50;100.00
43818;BME280;29868;47.360;18.984;2023-09-19T10:51:29;63979.53;;;23.57;100.00
43818;BME280;29868;47.360;18.984;2023-09-19T10:54:01;63980.88;;;23.61;100.00
43818;BME280;29868;47.360;18.984;2023-09-19T10:56:37;63998.22;;;23.74;100.00
43818;BME280;29868;47.360;18.984;2023-09-19T10:59:14;63971.06;;;23.49;100.00
43818;BME280;29868;47.360;18.984;2023-09-19T11:01:49;63980.09;;;23.58;100.00
43818;BME280;29868;47.360;18.984;2023-09-19T11:04:29;64026.31;;;24.04;100.00
43818;BME280;29868;47.360;18.984;2023-09-19T11:07:09;64063.25;;;24.33;100.00
43818;BME280;29868;47.360;18.984;2023-09-19T11:09:47;64072.91;;;24.41;100.00
43818;BME280;29868;47.360;18.984;2023-09-19T11:14:56;64099.47;;;24.65;100.00
43818;BME280;29868;47.360;18.984;2023-09-19T11:30:37;64084.75;;;24.45;100.00
43818;BME280;29868;47.360;18.984;2023-09-19T11:33:22;64046.84;;;24.18;100.00
43818;BME280;29868;47.360;18.984;2023-09-19T11:36:08;64077.06;;;24.47;100.00
43818;BME280;29868;47.360;18.984;2023-09-19T11:46:17;64018.56;;;23.92;100.00
43818;BME280;29868;47.360;18.984;2023-09-19T11:48:47;64034.41;;;24.07;100.00
43818;BME280;29868;47.360;18.984;2023-09-19T11:51:21;64086.84;;;24.51;100.00
43818;BME280;29868;47.360;18.984;2023-09-19T11:53:58;64075.34;;;24.46;100.00
43818;BME280;29868;47.360;18.984;2023-09-19T11:56:28;64067.78;;;24.37;100.00
43818;BME280;29868;47.360;18.984;2023-09-19T11:58:55;64046.84;;;24.18;100.00
43818;BME280;29868;47.360;18.984;2023-09-19T12:01:29;64079.88;;;24.50;100.00
43818;BME280;29868;47.360;18.984;2023-09-19T12:03:57;64096.09;;;24.62;100.00
43818;BME280;29868;47.360;18.984;2023-09-19T12:06:25;64061.94;;;24.29;100.00
43818;BME280;29868;47.360;18.984;2023-09-19T12:08:51;64068.56;;;24.40;100.00
43818;BME280;29868;47.360;18.984;2023-09-19T12:11:19;64101.75;;;24.67;100.00
43818;BME280;29868;47.360;18.984;2023-09-19T12:13:47;64109.69;;;24.74;100.00
43818;BME280;29868;47.360;18.984;2023-09-19T12:16:18;64117.03;;;24.81;100.00
43818;BME280;29868;47.360;18.984;2023-09-19T12:18:47;64134.78;;;24.99;100.00
43818;BME280;29868;47.360;18.984;2023-09-19T12:21:41;64078.00;;;24.46;100.00
43818;BME280;29868;47.360;18.984;2023-09-19T12:24:12;64096.66;;;24.63;100.00
43818;BME280;29868;47.360;18.984;2023-09-19T12:26:44;64130.06;;;24.93;100.00
43818;BME280;29868;47.360;18.984;2023-09-19T12:29:12;64161.22;;;25.21;100.00
43818;BME280;29868;47.360;18.984;2023-09-19T12:31:53;64204.81;;;25.60;100.00
43818;BME280;29868;47.360;18.984;2023-09-19T12:34:30;64188.03;;;25.47;100.00
43818;BME280;29868;47.360;18.984;2023-09-19T12:39:42;64156.13;;;25.16;100.00
43818;BME280;29868;47.360;18.984;2023-09-19T12:42:12;64155.34;;;25.13;100.00
43818;BME280;29868;47.360;18.984;2023-09-19T12:44:41;64106.84;;;24.72;100.00
43818;BME280;29868;47.360;18.984;2023-09-19T12:47:10;64075.72;;;24.44;100.00
43818;BME280;29868;47.360;18.984;2023-09-19T12:49:36;64051.38;;;24.22;100.00
43818;BME280;29868;47.360;18.984;2023-09-19T12:52:01;64018.00;;;23.92;100.00
43818;BME280;29868;47.360;18.984;2023-09-19T12:54:40;64087.59;;;24.55;100.00
43818;BME280;29868;47.360;18.984;2023-09-19T12:57:06;64093.84;;;24.60;100.00
43818;BME280;29868;47.360;18.984;2023-09-19T12:59:31;64117.59;;;24.82;100.00
43818;BME280;29868;47.360;18.984;2023-09-19T13:02:03;64105.72;;;24.71;100.00
43818;BME280;29868;47.360;18.984;2023-09-19T13:04:31;64131.75;;;24.94;100.00
43818;BME280;29868;47.360;18.984;2023-09-19T13:06:58;64161.22;;;25.21;100.00
43818;BME280;29868;47.360;18.984;2023-09-19T13:09:26;64176.13;;;25.37;100.00
43818;BME280;29868;47.360;18.984;2023-09-19T13:12:38;64168.00;;;25.27;100.00
43818;BME280;29868;47.360;18.984;2023-09-19T13:15:08;64168.94;;;25.26;100.00
43818;BME280;29868;47.360;18.984;2023-09-19T13:17:45;64174.44;;;25.35;100.00
43818;BME280;29868;47.360;18.984;2023-09-19T13:20:40;64217.84;;;25.72;100.00
43818;BME280;29868;47.360;18.984;2023-09-19T13:23:34;64212.19;;;25.67;100.00
43818;BME280;29868;47.360;18.984;2023-09-19T13:26:01;64212.75;;;25.67;100.00
43818;BME280;29868;47.360;18.984;2023-09-19T13:28:26;64208.22;;;25.63;100.00
43818;BME280;29868;47.360;18.984;2023-09-19T13:30:53;64200.47;;;25.59;100.00
43818;BME280;29868;47.360;18.984;2023-09-19T13:33:19;64207.66;;;25.63;100.00
43818;BME280;29868;47.360;18.984;2023-09-19T13:35:46;64171.97;;;25.31;100.00
43818;BME280;29868;47.360;18.984;2023-09-19T13:38:13;64118.34;;;24.85;100.00
43818;BME280;29868;47.360;18.984;2023-09-19T13:40:39;64138.56;;;25.00;100.00